createdAt,value
2022-10-05T00:00:47.065Z,17.49
2022-10-05T00:03:15.635Z,17.54
2022-10-05T00:05:46.289Z,17.52
2022-10-05T00:08:18.912Z,17.47
2022-10-05T00:10:48.273Z,17.58
2022-10-05T00:13:19.824Z,17.57
2022-10-05T00:15:48.514Z,17.56
2022-10-05T00:18:18.202Z,17.59
2022-10-05T00:20:47.461Z,17.56
2022-10-05T00:23:20.579Z,17.56
2022-10-05T00:25:49.503Z,17.53
2022-10-05T00:28:21.493Z,17.62
2022-10-05T00:30:49.863Z,17.55
2022-10-05T00:33:18.360Z,17.58
2022-10-05T00:35:47.024Z,17.58
2022-10-05T00:38:17.469Z,17.56
2022-10-05T00:41:01.291Z,17.50
2022-10-05T00:43:49.909Z,17.49
2022-10-05T00:46:23.685Z,17.35
2022-10-05T00:49:03.067Z,17.45
2022-10-05T00:51:32.987Z,17.56
2022-10-05T00:54:18.505Z,17.60
2022-10-05T00:57:09.259Z,17.46
2022-10-05T00:59:50.281Z,17.52
2022-10-05T01:02:30.917Z,17.61
2022-10-05T01:05:13.352Z,17.52
2022-10-05T01:07:49.093Z,17.37
2022-10-05T01:10:27.219Z,17.43
2022-10-05T01:13:04.954Z,17.36
2022-10-05T01:15:37.854Z,17.51
2022-10-05T01:18:13.088Z,17.50
2022-10-05T01:20:54.908Z,17.42
2022-10-05T01:24:04.842Z,17.48
2022-10-05T01:27:04.015Z,17.48
2022-10-05T01:29:39.728Z,17.39
2022-10-05T01:32:20.334Z,17.51
2022-10-05T01:34:55.013Z,17.44
2022-10-05T01:37:32.070Z,17.56
2022-10-05T01:40:08.645Z,17.38
2022-10-05T01:42:51.793Z,17.49
2022-10-05T01:45:31.477Z,17.52
2022-10-05T01:48:06.783Z,17.53
2022-10-05T01:50:47.453Z,17.52
2022-10-05T01:53:26.047Z,17.56
2022-10-05T01:56:03.779Z,17.60
2022-10-05T01:58:40.334Z,17.66
2022-10-05T02:01:18.369Z,17.61
2022-10-05T02:03:51.081Z,17.63
2022-10-05T02:06:24.359Z,17.58
2022-10-05T02:09:00.365Z,17.65
2022-10-05T02:11:28.622Z,17.62
2022-10-05T02:14:04.375Z,17.56
2022-10-05T02:16:40.728Z,17.60
2022-10-05T02:19:16.363Z,17.60
2022-10-05T02:22:00.889Z,17.49
2022-10-05T02:24:36.098Z,17.36
2022-10-05T02:27:07.410Z,17.36
2022-10-05T02:29:41.053Z,17.41
2022-10-05T02:32:16.550Z,17.48
2022-10-05T02:34:45.359Z,17.51
2022-10-05T02:37:30.609Z,17.57
2022-10-05T02:40:09.554Z,17.52
2022-10-05T02:42:48.291Z,17.54
2022-10-05T02:45:26.965Z,17.48
2022-10-05T02:48:10.661Z,17.47
2022-10-05T02:50:49.314Z,17.54
2022-10-05T02:53:30.486Z,17.49
2022-10-05T02:56:11.176Z,17.53
2022-10-05T02:58:45.926Z,17.48
2022-10-05T03:01:24.928Z,17.44
2022-10-05T03:04:03.620Z,17.49
2022-10-05T03:06:39.381Z,17.47
2022-10-05T03:09:09.459Z,17.37
2022-10-05T03:11:48.150Z,17.38
2022-10-05T03:14:23.836Z,17.41
2022-10-05T03:17:05.589Z,17.39
2022-10-05T03:19:52.162Z,17.46
2022-10-05T03:22:32.797Z,17.47
2022-10-05T03:25:22.743Z,17.44
2022-10-05T03:28:01.167Z,17.44
2022-10-05T03:30:36.497Z,17.47
2022-10-05T03:33:13.409Z,17.50
2022-10-05T03:35:53.186Z,17.42
2022-10-05T03:38:29.059Z,17.48
2022-10-05T03:41:07.195Z,17.50
2022-10-05T03:43:58.453Z,17.46
2022-10-05T03:46:38.590Z,17.44
2022-10-05T03:49:15.726Z,17.40
2022-10-05T03:51:51.368Z,17.35
2022-10-05T03:54:25.497Z,17.41
2022-10-05T03:56:56.965Z,17.43
2022-10-05T03:59:32.838Z,17.46
2022-10-05T04:02:07.260Z,17.46
2022-10-05T04:04:40.215Z,17.45
2022-10-05T04:07:22.916Z,17.43
2022-10-05T04:09:52.469Z,17.43
2022-10-05T04:12:26.698Z,17.49
2022-10-05T04:15:01.372Z,17.46
2022-10-05T04:17:36.015Z,17.45
2022-10-05T04:20:07.398Z,17.48
2022-10-05T04:22:40.565Z,17.55
2022-10-05T04:25:16.843Z,17.52
2022-10-05T04:27:52.315Z,17.56
2022-10-05T04:30:22.742Z,17.49
2022-10-05T04:32:57.285Z,17.44
2022-10-05T04:35:56.095Z,17.46
2022-10-05T04:38:37.078Z,17.56
2022-10-05T04:41:29.376Z,17.52
2022-10-05T04:44:09.558Z,17.52
2022-10-05T04:46:56.317Z,17.49
2022-10-05T04:49:44.974Z,17.54
2022-10-05T04:52:23.468Z,17.42
2022-10-05T04:55:05.235Z,17.38
2022-10-05T04:57:41.755Z,17.38
2022-10-05T05:00:21.418Z,17.48
2022-10-05T05:03:30.782Z,17.53
2022-10-05T05:06:17.340Z,17.50
2022-10-05T05:09:04.666Z,17.45
2022-10-05T05:11:46.498Z,17.42
2022-10-05T05:14:47.570Z,17.47
2022-10-05T05:17:30.137Z,17.58
2022-10-05T05:20:09.739Z,17.56
2022-10-05T05:22:46.779Z,17.56
2022-10-05T05:25:24.418Z,17.56
2022-10-05T05:27:59.000Z,17.41
2022-10-05T05:30:39.763Z,17.44
2022-10-05T05:33:19.212Z,17.49
2022-10-05T05:36:23.733Z,17.47
2022-10-05T05:39:08.619Z,17.40
2022-10-05T05:41:40.296Z,17.53
2022-10-05T05:44:23.648Z,17.53
2022-10-05T05:47:03.914Z,17.55
2022-10-05T05:49:47.000Z,17.57
2022-10-05T05:52:21.231Z,17.56
2022-10-05T05:54:56.122Z,17.50
2022-10-05T05:57:29.351Z,17.45
2022-10-05T06:00:06.424Z,17.47
2022-10-05T06:02:52.763Z,17.51
2022-10-05T06:05:31.316Z,17.45
2022-10-05T06:08:08.386Z,17.42
2022-10-05T06:10:44.678Z,17.50
2022-10-05T06:13:20.512Z,17.48
2022-10-05T06:15:54.318Z,17.49
2022-10-05T06:18:24.575Z,17.46
2022-10-05T06:21:01.867Z,17.46
2022-10-05T06:23:38.518Z,17.46
2022-10-05T06:26:20.315Z,17.50
2022-10-05T06:28:57.492Z,17.45
2022-10-05T06:31:39.439Z,17.43
2022-10-05T06:34:23.783Z,17.44
2022-10-05T06:37:00.109Z,17.47
2022-10-05T06:40:01.058Z,17.38
2022-10-05T06:43:02.793Z,17.43
2022-10-05T06:45:49.977Z,17.40
2022-10-05T06:49:02.987Z,17.41
2022-10-05T06:52:11.069Z,17.42
2022-10-05T06:54:55.492Z,17.40
2022-10-05T06:57:44.774Z,17.55
2022-10-05T07:00:20.814Z,17.61
2022-10-05T07:02:58.842Z,17.56
2022-10-05T07:05:59.190Z,17.48
2022-10-05T07:08:43.190Z,17.59
2022-10-05T07:11:26.898Z,17.57
2022-10-05T07:14:18.034Z,17.60
2022-10-05T07:17:02.500Z,17.69
2022-10-05T07:19:38.590Z,17.64
2022-10-05T07:22:35.393Z,17.61
2022-10-05T07:25:14.529Z,17.64
2022-10-05T07:27:51.868Z,17.60
2022-10-05T07:30:21.691Z,17.67
2022-10-05T07:32:59.812Z,17.67
2022-10-05T07:35:57.776Z,17.74
2022-10-05T07:38:37.386Z,17.69
2022-10-05T07:41:10.626Z,17.68
2022-10-05T07:44:02.161Z,17.67
2022-10-05T07:46:46.745Z,17.73
2022-10-05T07:49:23.110Z,17.57
2022-10-05T07:51:56.964Z,17.54
2022-10-05T07:54:34.543Z,17.54
2022-10-05T07:57:12.709Z,17.47
2022-10-05T07:59:50.195Z,17.40
2022-10-05T08:02:28.507Z,17.45
2022-10-05T08:05:02.539Z,17.41
2022-10-05T08:07:35.712Z,17.46
2022-10-05T08:10:19.586Z,17.56
2022-10-05T08:13:01.637Z,17.64
2022-10-05T08:15:35.817Z,17.65
2022-10-05T08:18:12.497Z,17.64
2022-10-05T08:20:45.831Z,17.59
2022-10-05T08:23:23.343Z,17.52
2022-10-05T08:26:08.138Z,17.47
2022-10-05T08:28:40.021Z,17.44
2022-10-05T08:31:18.081Z,17.40
2022-10-05T08:33:56.161Z,17.40
2022-10-05T08:36:43.582Z,17.38
2022-10-05T08:39:16.465Z,17.27
2022-10-05T08:42:17.143Z,17.28
2022-10-05T08:45:22.794Z,17.12
2022-10-05T08:48:36.018Z,17.13
2022-10-05T08:51:21.612Z,17.15
2022-10-05T08:54:23.562Z,17.15
2022-10-05T08:57:05.244Z,17.04
2022-10-05T09:00:05.161Z,17.03
2022-10-05T09:02:52.211Z,17.03
2022-10-05T09:05:39.023Z,17.01
2022-10-05T09:08:40.178Z,16.90
2022-10-05T09:11:15.132Z,16.83
2022-10-05T09:14:27.442Z,16.79
2022-10-05T09:17:17.323Z,16.79
2022-10-05T09:20:11.301Z,16.77
2022-10-05T09:23:02.194Z,16.77
2022-10-05T09:25:44.199Z,16.73
2022-10-05T09:28:35.544Z,16.78
2022-10-05T09:31:20.760Z,16.71
2022-10-05T09:34:16.039Z,16.62
2022-10-05T09:37:20.175Z,16.70
2022-10-05T09:40:30.042Z,16.63
2022-10-05T09:43:12.210Z,16.59
2022-10-05T09:46:12.624Z,16.65
2022-10-05T09:49:37.025Z,16.67
2022-10-05T09:52:30.406Z,16.64
2022-10-05T09:55:34.112Z,16.66
2022-10-05T09:58:45.789Z,16.72
2022-10-05T10:01:33.643Z,16.69
2022-10-05T10:04:30.514Z,16.78
2022-10-05T10:07:29.881Z,16.79
2022-10-05T10:10:23.051Z,16.90
2022-10-05T10:13:12.492Z,16.96
2022-10-05T10:16:05.939Z,16.99
2022-10-05T10:18:54.208Z,17.03
2022-10-05T10:21:43.841Z,17.17
2022-10-05T10:24:25.736Z,17.24
2022-10-05T10:27:16.619Z,17.32
2022-10-05T10:30:12.463Z,17.27
2022-10-05T10:33:37.061Z,17.31
2022-10-05T10:36:15.017Z,17.37
2022-10-05T10:38:54.454Z,17.33
2022-10-05T10:41:35.204Z,17.37
2022-10-05T10:44:44.113Z,17.41
2022-10-05T10:47:48.286Z,17.47
2022-10-05T10:50:51.216Z,17.55
2022-10-05T10:54:02.635Z,17.49
2022-10-05T10:56:48.866Z,17.36
2022-10-05T10:59:57.886Z,17.16
2022-10-05T11:02:51.081Z,17.12
2022-10-05T11:05:57.984Z,17.07
2022-10-05T11:09:02.472Z,17.11
2022-10-05T11:11:53.368Z,17.21
2022-10-05T11:15:00.470Z,17.29
2022-10-05T11:18:01.129Z,17.27
2022-10-05T11:20:58.896Z,17.29
2022-10-05T11:24:00.381Z,17.17
2022-10-05T11:26:46.725Z,17.17
2022-10-05T11:29:54.545Z,17.28
2022-10-05T11:32:46.614Z,17.44
2022-10-05T11:35:35.190Z,17.50
2022-10-05T11:38:17.018Z,17.58
2022-10-05T11:41:33.058Z,17.63
2022-10-05T11:44:34.280Z,17.82
2022-10-05T11:47:10.296Z,17.97
2022-10-05T11:49:46.441Z,18.01
2022-10-05T11:52:23.069Z,18.20
2022-10-05T11:55:11.792Z,18.34
2022-10-05T11:57:47.858Z,18.33
2022-10-05T12:00:19.586Z,18.30
2022-10-05T12:03:19.946Z,18.26
2022-10-05T12:05:59.265Z,18.30
2022-10-05T12:08:41.489Z,18.31
2022-10-05T12:11:43.880Z,18.25
2022-10-05T12:14:25.248Z,18.24
2022-10-05T12:17:00.292Z,18.33
2022-10-05T12:19:33.937Z,18.43
2022-10-05T12:22:10.727Z,18.52
2022-10-05T12:25:04.381Z,18.62
2022-10-05T12:27:38.961Z,18.70
2022-10-05T12:30:16.215Z,18.68
2022-10-05T12:33:01.719Z,18.70
2022-10-05T12:35:47.860Z,18.71
2022-10-05T12:38:27.042Z,18.75
2022-10-05T12:41:05.358Z,18.82
2022-10-05T12:43:44.965Z,18.85
2022-10-05T12:46:26.039Z,18.86
2022-10-05T12:49:27.973Z,18.80
2022-10-05T12:51:59.677Z,18.77
2022-10-05T12:54:38.779Z,18.84
2022-10-05T12:57:18.967Z,18.84
2022-10-05T12:59:52.575Z,18.88
2022-10-05T13:02:32.005Z,18.90
2022-10-05T13:05:08.179Z,18.87
2022-10-05T13:07:49.234Z,18.83
2022-10-05T13:10:31.713Z,18.81
2022-10-05T13:13:16.077Z,18.81
2022-10-05T13:15:53.664Z,18.82
2022-10-05T13:18:29.886Z,18.87
2022-10-05T13:21:05.331Z,18.93
2022-10-05T13:23:51.728Z,18.99
2022-10-05T13:26:29.256Z,19.08
2022-10-05T13:29:04.112Z,19.13
2022-10-05T13:31:36.930Z,19.05
2022-10-05T13:34:20.741Z,18.95
2022-10-05T13:36:59.142Z,18.91
2022-10-05T13:39:50.766Z,18.94
2022-10-05T13:42:26.891Z,18.89
2022-10-05T13:45:01.132Z,18.81
2022-10-05T13:47:35.976Z,18.73
2022-10-05T13:50:11.254Z,18.67
2022-10-05T13:52:52.508Z,18.63
2022-10-05T13:55:32.360Z,18.58
2022-10-05T13:58:07.169Z,18.48
2022-10-05T14:00:46.869Z,18.45
2022-10-05T14:03:27.884Z,18.45
2022-10-05T14:05:58.213Z,18.44
2022-10-05T14:08:29.869Z,18.43
2022-10-05T14:10:58.314Z,18.40
2022-10-05T14:13:31.973Z,18.46
2022-10-05T14:16:19.249Z,18.44
2022-10-05T14:18:57.832Z,18.42
2022-10-05T14:21:30.127Z,18.45
2022-10-05T14:24:32.196Z,18.32
2022-10-05T14:27:21.117Z,18.42
2022-10-05T14:29:57.843Z,18.54
2022-10-05T14:32:32.137Z,18.66
2022-10-05T14:35:14.008Z,18.75
2022-10-05T14:37:50.259Z,18.81
2022-10-05T14:40:29.442Z,18.84
2022-10-05T14:42:58.643Z,18.86
2022-10-05T14:45:30.070Z,18.90
2022-10-05T14:48:12.369Z,18.84
2022-10-05T14:50:58.095Z,18.84
2022-10-05T14:53:37.985Z,18.84
2022-10-05T14:56:36.632Z,18.79
2022-10-05T14:59:27.816Z,18.68
2022-10-05T15:02:02.141Z,18.64
2022-10-05T15:04:50.436Z,18.59
2022-10-05T15:07:25.719Z,18.63
2022-10-05T15:10:32.520Z,18.70
2022-10-05T15:13:13.299Z,18.71
2022-10-05T15:15:48.527Z,18.68
2022-10-05T15:18:31.009Z,18.70
2022-10-05T15:21:22.629Z,18.70
2022-10-05T15:23:57.529Z,18.64
2022-10-05T15:26:39.049Z,18.59
2022-10-05T15:29:18.772Z,18.46
2022-10-05T15:32:00.796Z,18.39
2022-10-05T15:34:36.701Z,18.32
2022-10-05T15:37:16.990Z,18.26
2022-10-05T15:39:52.746Z,18.18
2022-10-05T15:42:24.276Z,18.11
2022-10-05T15:45:03.189Z,17.98
2022-10-05T15:47:48.123Z,17.93
2022-10-05T15:50:21.795Z,17.89
2022-10-05T15:52:56.261Z,17.90
2022-10-05T15:55:35.259Z,17.88
2022-10-05T15:58:32.186Z,17.85
2022-10-05T16:01:12.950Z,17.82
2022-10-05T16:03:49.886Z,17.71
2022-10-05T16:06:52.234Z,17.64
2022-10-05T16:09:40.354Z,17.48
2022-10-05T16:12:18.701Z,17.47
2022-10-05T16:14:59.799Z,17.49
2022-10-05T16:17:41.047Z,17.51
2022-10-05T16:20:26.318Z,17.49
2022-10-05T16:23:01.296Z,17.47
2022-10-05T16:25:46.245Z,17.47
2022-10-05T16:28:29.302Z,17.48
2022-10-05T16:31:03.942Z,17.46
2022-10-05T16:33:49.992Z,17.49
2022-10-05T16:36:28.242Z,17.49
2022-10-05T16:39:02.959Z,17.56
2022-10-05T16:41:39.467Z,17.63
2022-10-05T16:44:17.307Z,17.67
2022-10-05T16:46:51.982Z,17.72
2022-10-05T16:49:32.713Z,17.66
2022-10-05T16:52:02.151Z,17.65
2022-10-05T16:54:34.367Z,17.62
2022-10-05T16:57:13.383Z,17.62
2022-10-05T17:00:13.383Z,17.53
2022-10-05T17:03:02.920Z,17.49
2022-10-05T17:05:48.361Z,17.49
2022-10-05T17:08:36.798Z,17.42
2022-10-05T17:11:16.646Z,17.34
2022-10-05T17:14:00.921Z,17.28
2022-10-05T17:16:41.539Z,17.19
2022-10-05T17:19:23.903Z,17.11
2022-10-05T17:22:00.814Z,16.99
2022-10-05T17:24:51.970Z,16.93
2022-10-05T17:27:33.075Z,16.78
2022-10-05T17:30:24.913Z,16.66
2022-10-05T17:32:58.389Z,16.59
2022-10-05T17:35:50.820Z,16.49
2022-10-05T17:38:22.038Z,16.42
2022-10-05T17:41:12.810Z,16.31
2022-10-05T17:43:42.344Z,16.23
2022-10-05T17:46:12.750Z,16.16
2022-10-05T17:49:02.449Z,16.07
2022-10-05T17:52:16.866Z,15.94
2022-10-05T17:55:20.801Z,15.81
2022-10-05T17:57:49.682Z,15.76
2022-10-05T18:01:04.810Z,15.70
2022-10-05T18:03:43.588Z,15.61
2022-10-05T18:06:48.154Z,15.51
2022-10-05T18:09:36.270Z,15.44
2022-10-05T18:12:42.817Z,15.41
2022-10-05T18:15:46.261Z,15.34
2022-10-05T18:18:59.466Z,15.28
2022-10-05T18:21:39.015Z,15.15
2022-10-05T18:24:53.237Z,15.16
2022-10-05T18:27:52.947Z,15.10
2022-10-05T18:30:23.677Z,15.09
2022-10-05T18:33:24.135Z,15.02
2022-10-05T18:36:02.029Z,14.99
2022-10-05T18:38:48.489Z,14.93
2022-10-05T18:41:23.902Z,14.87
2022-10-05T18:44:04.518Z,14.83
2022-10-05T18:46:43.795Z,14.80
2022-10-05T18:49:28.028Z,14.77
2022-10-05T18:52:04.541Z,14.73
2022-10-05T18:54:49.365Z,14.70
2022-10-05T18:57:42.610Z,14.63
2022-10-05T19:00:16.459Z,14.58
2022-10-05T19:02:48.883Z,14.55
2022-10-05T19:05:48.016Z,14.51
2022-10-05T19:08:28.585Z,14.52
2022-10-05T19:11:07.180Z,14.47
2022-10-05T19:13:44.563Z,14.42
2022-10-05T19:16:34.650Z,14.40
2022-10-05T19:19:29.512Z,14.37
2022-10-05T19:22:07.217Z,14.35
2022-10-05T19:24:49.558Z,14.33
2022-10-05T19:27:28.206Z,14.30
2022-10-05T19:30:14.736Z,14.27
2022-10-05T19:33:05.026Z,14.27
2022-10-05T19:35:43.031Z,14.27
2022-10-05T19:38:22.648Z,14.26
2022-10-05T19:40:59.953Z,14.22
2022-10-05T19:44:02.579Z,14.19
2022-10-05T19:46:49.753Z,14.15
2022-10-05T19:49:42.365Z,14.12
2022-10-05T19:52:14.084Z,14.08
2022-10-05T19:54:43.642Z,14.07
2022-10-05T19:57:18.153Z,14.06
2022-10-05T19:59:49.153Z,14.04
2022-10-05T20:02:19.053Z,14.05
2022-10-05T20:04:49.560Z,14.02
2022-10-05T20:07:21.723Z,14.01
2022-10-05T20:09:53.155Z,13.99
2022-10-05T20:12:23.225Z,13.98
2022-10-05T20:18:04.281Z,13.96
2022-10-05T20:20:41.634Z,13.94
2022-10-05T20:23:29.497Z,13.91
2022-10-05T20:26:15.472Z,13.90
2022-10-05T20:28:44.487Z,13.87
2022-10-05T20:31:14.638Z,13.87
2022-10-05T20:33:46.066Z,13.86
2022-10-05T20:36:14.151Z,13.85
2022-10-05T20:38:43.761Z,13.84
2022-10-05T20:41:11.869Z,13.81
2022-10-05T20:43:40.530Z,13.80
2022-10-05T20:46:08.697Z,13.78
2022-10-05T20:48:36.859Z,13.76
2022-10-05T20:51:06.615Z,13.75
2022-10-05T20:53:34.914Z,13.72
2022-10-05T20:56:04.540Z,13.71
2022-10-05T20:58:33.158Z,13.69
2022-10-05T21:01:19.080Z,13.65
2022-10-05T21:03:48.146Z,13.62
2022-10-05T21:06:19.179Z,13.60
2022-10-05T21:08:47.299Z,13.57
2022-10-05T21:11:15.990Z,13.55
2022-10-05T21:13:45.498Z,13.54
2022-10-05T21:16:26.999Z,13.53
2022-10-05T21:18:58.448Z,13.50
2022-10-05T21:21:28.257Z,13.51
2022-10-05T21:23:56.895Z,13.48
2022-10-05T21:26:25.139Z,13.45
2022-10-05T21:28:53.394Z,13.42
2022-10-05T21:31:21.770Z,13.40
2022-10-05T21:33:50.029Z,13.41
2022-10-05T21:36:23.871Z,13.42
2022-10-05T21:38:55.632Z,13.42
2022-10-05T21:41:24.334Z,13.40
2022-10-05T21:43:52.506Z,13.37
2022-10-05T21:46:23.195Z,13.35
2022-10-05T21:48:51.634Z,13.35
2022-10-05T21:51:21.143Z,13.31
2022-10-05T21:53:53.039Z,13.31
2022-10-05T21:56:25.988Z,13.29
2022-10-05T21:58:54.205Z,13.27
2022-10-05T22:01:23.088Z,13.26
2022-10-05T22:03:51.777Z,13.27
2022-10-05T22:06:20.021Z,13.27
2022-10-05T22:08:48.241Z,13.26
2022-10-05T22:11:18.886Z,13.26
2022-10-05T22:13:50.280Z,13.25
2022-10-05T22:16:20.811Z,13.26
2022-10-05T22:18:49.965Z,13.25
2022-10-05T22:21:18.498Z,13.26
2022-10-05T22:23:47.378Z,13.27
2022-10-05T22:26:19.314Z,13.30
2022-10-05T22:28:49.720Z,13.34
2022-10-05T22:31:20.139Z,13.41
2022-10-05T22:33:48.405Z,13.47
2022-10-05T22:36:17.132Z,13.52
2022-10-05T22:38:46.667Z,13.60
2022-10-05T22:41:16.514Z,13.70
2022-10-05T22:43:44.893Z,13.79
2022-10-05T22:46:14.985Z,13.91
2022-10-05T22:48:43.278Z,14.01
2022-10-05T22:51:11.482Z,14.10
2022-10-05T22:53:39.585Z,14.14
2022-10-05T22:56:09.399Z,14.21
2022-10-05T22:58:38.144Z,14.26
2022-10-05T23:01:08.876Z,14.32
2022-10-05T23:03:38.929Z,14.36
2022-10-05T23:06:10.268Z,14.36
2022-10-05T23:08:39.553Z,14.31
2022-10-05T23:11:10.094Z,14.27
2022-10-05T23:13:38.612Z,14.21
2022-10-05T23:16:08.246Z,14.14
2022-10-05T23:18:38.268Z,14.07
2022-10-05T23:21:08.605Z,14.01
2022-10-05T23:23:37.933Z,13.96
2022-10-05T23:26:08.026Z,13.90
2022-10-05T23:28:36.275Z,13.83
2022-10-05T23:31:08.250Z,13.78
2022-10-05T23:33:38.421Z,13.70
2022-10-05T23:36:08.876Z,13.64
2022-10-05T23:38:37.612Z,13.56
2022-10-05T23:41:06.887Z,13.49
2022-10-05T23:43:35.777Z,13.43
2022-10-05T23:46:05.524Z,13.40
2022-10-05T23:48:33.979Z,13.35
2022-10-05T23:51:03.549Z,13.29
2022-10-05T23:53:31.716Z,13.25
2022-10-05T23:56:00.033Z,13.22
2022-10-05T23:58:29.890Z,13.18
